createdAt,value
2018-09-28T00:01:03.137Z,15.17
2018-09-28T00:02:13.085Z,15.19
2018-09-28T00:03:23.007Z,15.15
2018-09-28T00:04:32.987Z,15.18
2018-09-28T00:05:42.939Z,15.12
2018-09-28T00:06:52.623Z,15.08
2018-09-28T00:08:02.567Z,15.04
2018-09-28T00:09:11.991Z,14.97
2018-09-28T00:10:21.928Z,14.87
2018-09-28T00:11:31.865Z,14.89
2018-09-28T00:12:41.297Z,14.87
2018-09-28T00:13:51.230Z,14.81
2018-09-28T00:15:00.907Z,14.85
2018-09-28T00:16:10.844Z,14.78
2018-09-28T00:17:20.277Z,14.77
2018-09-28T00:18:29.973Z,14.77
2018-09-28T00:19:39.927Z,14.74
2018-09-28T00:20:49.617Z,14.78
2018-09-28T00:21:59.611Z,14.71
2018-09-28T00:23:09.340Z,14.71
2018-09-28T00:24:19.268Z,14.63
2018-09-28T00:25:28.954Z,14.66
2018-09-28T00:26:38.651Z,14.66
2018-09-28T00:27:48.348Z,14.63
2018-09-28T00:28:58.034Z,14.62
2018-09-28T00:30:07.983Z,14.61
2018-09-28T00:31:17.972Z,14.59
2018-09-28T00:32:27.666Z,14.61
2018-09-28T00:33:37.613Z,14.62
2018-09-28T00:34:47.551Z,14.61
2018-09-28T00:35:57.461Z,14.63
2018-09-28T00:37:07.770Z,14.52
2018-09-28T00:38:17.454Z,14.52
2018-09-28T00:39:27.397Z,14.53
2018-09-28T00:40:37.353Z,14.55
2018-09-28T00:41:47.047Z,14.55
2018-09-28T00:42:56.737Z,14.51
2018-09-28T00:44:06.678Z,14.59
2018-09-28T00:45:16.622Z,14.51
2018-09-28T00:46:26.321Z,14.49
2018-09-28T00:47:36.012Z,14.51
2018-09-28T00:48:45.707Z,14.48
2018-09-28T00:49:55.403Z,14.48
2018-09-28T00:51:05.341Z,14.43
2018-09-28T00:52:15.285Z,14.43
2018-09-28T00:53:25.229Z,14.43
2018-09-28T00:54:35.177Z,14.4
2018-09-28T00:55:45.122Z,14.44
2018-09-28T00:56:55.056Z,14.34
2018-09-28T00:58:05.002Z,14.31
2018-09-28T00:59:14.956Z,14.3
2018-09-28T01:00:24.896Z,14.31
2018-09-28T01:01:34.580Z,14.31
2018-09-28T01:02:44.264Z,14.25
2018-09-28T01:03:54.210Z,14.26
2018-09-28T01:05:03.892Z,14.31
2018-09-28T01:06:13.832Z,14.3
2018-09-28T01:07:23.779Z,14.23
2018-09-28T01:08:33.452Z,14.2
2018-09-28T01:09:43.393Z,14.2
2018-09-28T01:10:53.334Z,14.25
2018-09-28T01:12:03.271Z,14.2
2018-09-28T01:13:13.210Z,14.15
2018-09-28T01:14:23.159Z,14.16
2018-09-28T01:15:32.578Z,14.18
2018-09-28T01:16:42.532Z,14.12
2018-09-28T01:17:52.200Z,14.18
2018-09-28T01:19:01.877Z,14.16
2018-09-28T01:20:11.828Z,14.16
2018-09-28T01:21:21.762Z,14.15
2018-09-28T01:22:31.712Z,14.13
2018-09-28T01:23:41.670Z,14.08
2018-09-28T01:24:51.615Z,14.12
2018-09-28T01:26:01.566Z,14.15
2018-09-28T01:27:11.268Z,14.13
2018-09-28T01:28:21.219Z,14.08
2018-09-28T01:29:31.168Z,14.13
2018-09-28T01:30:40.849Z,14.05
2018-09-28T01:31:50.794Z,14.05
2018-09-28T01:33:00.736Z,14.05
2018-09-28T01:34:10.429Z,14.01
2018-09-28T01:35:20.375Z,14.01
2018-09-28T01:36:30.308Z,14.07
2018-09-28T01:37:40.248Z,14.05
2018-09-28T01:38:49.926Z,14.03
2018-09-28T01:39:59.865Z,14.04
2018-09-28T01:41:09.805Z,14.04
2018-09-28T01:42:19.762Z,13.93
2018-09-28T01:43:29.701Z,14.01
2018-09-28T01:44:39.639Z,13.94
2018-09-28T01:45:49.583Z,14
2018-09-28T01:46:59.261Z,13.98
2018-09-28T01:48:08.689Z,14.01
2018-09-28T01:49:18.627Z,13.95
2018-09-28T01:50:28.585Z,13.93
2018-09-28T01:51:38.284Z,13.87
2018-09-28T01:52:47.720Z,13.79
2018-09-28T01:53:57.656Z,13.85
2018-09-28T01:55:07.356Z,13.75
2018-09-28T01:56:17.303Z,13.73
2018-09-28T01:57:27.238Z,13.78
2018-09-28T01:58:37.186Z,13.71
2018-09-28T01:59:47.136Z,13.65
2018-09-28T02:00:57.078Z,13.65
2018-09-28T02:02:07.021Z,13.62
2018-09-28T02:03:16.964Z,13.65
2018-09-28T02:04:26.911Z,13.62
2018-09-28T02:05:36.603Z,13.68
2018-09-28T02:06:46.301Z,13.67
2018-09-28T02:07:55.977Z,13.65
2018-09-28T02:09:05.905Z,13.68
2018-09-28T02:10:15.856Z,13.61
2018-09-28T02:11:25.780Z,13.58
2018-09-28T02:12:35.977Z,13.65
2018-09-28T02:13:46.252Z,13.6
2018-09-28T02:14:56.183Z,13.64
2018-09-28T02:16:06.173Z,13.61
2018-09-28T02:17:16.116Z,13.55
2018-09-28T02:18:26.076Z,13.64
2018-09-28T02:19:35.781Z,13.61
2018-09-28T02:20:45.488Z,13.58
2018-09-28T02:21:55.434Z,13.58
2018-09-28T02:23:05.135Z,13.52
2018-09-28T02:24:14.828Z,13.54
2018-09-28T02:25:24.245Z,13.6
2018-09-28T02:26:34.189Z,13.57
2018-09-28T02:27:43.879Z,13.58
2018-09-28T02:28:53.303Z,13.58
2018-09-28T02:30:03.258Z,13.58
2018-09-28T02:31:12.955Z,13.58
2018-09-28T02:32:22.653Z,13.6
2018-09-28T02:33:32.600Z,13.55
2018-09-28T02:34:42.280Z,13.52
2018-09-28T02:35:52.236Z,13.6
2018-09-28T02:37:01.935Z,13.57
2018-09-28T02:38:11.633Z,13.62
2018-09-28T02:39:21.613Z,13.58
2018-09-28T02:40:31.549Z,13.58
2018-09-28T02:41:41.227Z,13.55
2018-09-28T02:42:51.189Z,13.55
2018-09-28T02:44:01.136Z,13.6
2018-09-28T02:45:11.067Z,13.6
2018-09-28T02:46:21.020Z,13.6
2018-09-28T02:47:30.714Z,13.6
2018-09-28T02:48:40.661Z,13.52
2018-09-28T02:49:50.357Z,13.57
2018-09-28T02:51:00.323Z,13.61
2018-09-28T02:52:10.276Z,13.54
2018-09-28T02:53:19.979Z,13.52
2018-09-28T02:54:29.906Z,13.55
2018-09-28T02:55:39.853Z,13.49
2018-09-28T02:56:49.643Z,13.54
2018-09-28T02:57:59.857Z,13.54
2018-09-28T02:59:09.353Z,13.58
2018-09-28T03:00:19.285Z,13.5
2018-09-28T03:01:29.246Z,13.5
2018-09-28T03:02:39.194Z,13.49
2018-09-28T03:03:49.135Z,13.46
2018-09-28T03:04:59.068Z,13.46
2018-09-28T03:06:08.826Z,13.42
2018-09-28T03:07:18.432Z,13.45
2018-09-28T03:08:28.388Z,13.42
2018-09-28T03:09:38.076Z,13.46
2018-09-28T03:10:48.026Z,13.42
2018-09-28T03:11:57.729Z,13.39
2018-09-28T03:13:07.692Z,13.39
2018-09-28T03:14:17.635Z,13.37
2018-09-28T03:15:27.341Z,13.31
2018-09-28T03:16:37.285Z,13.33
2018-09-28T03:17:46.973Z,13.28
2018-09-28T03:18:56.896Z,13.26
2018-09-28T03:20:06.857Z,13.2
2018-09-28T03:21:16.528Z,13.27
2018-09-28T03:22:26.490Z,13.26
2018-09-28T03:23:36.432Z,13.19
2018-09-28T03:24:46.398Z,13.23
2018-09-28T03:25:56.656Z,13.09
2018-09-28T03:27:06.900Z,13.12
2018-09-28T03:28:16.843Z,13.12
2018-09-28T03:29:26.795Z,13.05
2018-09-28T03:30:36.479Z,13.02
2018-09-28T03:31:46.186Z,13.05
2018-09-28T03:32:56.174Z,12.99
2018-09-28T03:34:05.348Z,13.01
2018-09-28T03:35:15.277Z,12.98
2018-09-28T03:36:24.976Z,12.93
2018-09-28T03:37:34.925Z,12.94
2018-09-28T03:38:44.875Z,12.88
2018-09-28T03:39:54.321Z,12.93
2018-09-28T03:41:04.270Z,12.99
2018-09-28T03:42:14.201Z,12.93
2018-09-28T03:43:24.161Z,12.93
2018-09-28T03:44:34.118Z,12.94
2018-09-28T03:45:44.121Z,12.91
2018-09-28T03:46:53.839Z,12.87
2018-09-28T03:48:03.791Z,12.9
2018-09-28T03:49:13.743Z,12.98
2018-09-28T03:50:23.191Z,12.84
2018-09-28T03:51:32.895Z,13.02
2018-09-28T03:52:42.566Z,12.91
2018-09-28T03:53:52.275Z,12.99
2018-09-28T03:55:02.236Z,12.94
2018-09-28T03:56:12.184Z,12.87
2018-09-28T03:57:22.134Z,12.78
2018-09-28T03:58:32.076Z,12.78
2018-09-28T03:59:42.005Z,12.93
2018-09-28T04:00:51.951Z,12.87
2018-09-28T04:02:01.638Z,12.88
2018-09-28T04:03:11.583Z,12.8
2018-09-28T04:04:21.527Z,12.83
2018-09-28T04:05:31.220Z,12.78
2018-09-28T04:06:41.181Z,12.87
2018-09-28T04:07:51.229Z,12.81
2018-09-28T04:09:01.185Z,12.75
2018-09-28T04:10:11.149Z,12.76
2018-09-28T04:11:21.094Z,12.76
2018-09-28T04:12:31.040Z,12.76
2018-09-28T04:13:40.987Z,12.75
2018-09-28T04:14:50.695Z,12.78
2018-09-28T04:16:00.700Z,12.73
2018-09-28T04:17:10.670Z,12.76
2018-09-28T04:18:20.367Z,12.76
2018-09-28T04:19:30.096Z,12.69
2018-09-28T04:20:39.790Z,12.63
2018-09-28T04:21:49.897Z,12.63
2018-09-28T04:22:59.818Z,12.72
2018-09-28T04:24:09.504Z,12.62
2018-09-28T04:25:19.462Z,12.65
2018-09-28T04:26:29.415Z,12.65
2018-09-28T04:27:39.421Z,12.66
2018-09-28T04:28:49.394Z,12.63
2018-09-28T04:29:58.813Z,12.61
2018-09-28T04:31:08.764Z,12.63
2018-09-28T04:32:18.705Z,12.63
2018-09-28T04:33:28.647Z,12.57
2018-09-28T04:34:38.611Z,12.51
2018-09-28T04:35:48.570Z,12.55
2018-09-28T04:36:58.515Z,12.51
2018-09-28T04:38:08.469Z,12.54
2018-09-28T04:39:17.884Z,12.5
2018-09-28T04:40:27.064Z,12.51
2018-09-28T04:41:36.771Z,12.5
2018-09-28T04:42:46.202Z,12.48
2018-09-28T04:43:56.158Z,12.44
2018-09-28T04:45:05.970Z,12.43
2018-09-28T04:46:16.112Z,12.45
2018-09-28T04:47:25.807Z,12.43
2018-09-28T04:48:35.480Z,12.4
2018-09-28T04:49:45.170Z,12.39
2018-09-28T04:50:55.132Z,12.35
2018-09-28T04:52:04.813Z,12.36
2018-09-28T04:53:14.755Z,12.36
2018-09-28T04:54:24.463Z,12.37
2018-09-28T04:55:34.156Z,12.3
2018-09-28T04:56:44.113Z,12.36
2018-09-28T04:57:54.070Z,12.25
2018-09-28T04:59:04.022Z,12.26
2018-09-28T05:00:13.450Z,12.25
2018-09-28T05:01:23.406Z,12.23
2018-09-28T05:02:33.346Z,12.29
2018-09-28T05:03:43.294Z,12.28
2018-09-28T05:04:53.235Z,12.23
2018-09-28T05:06:03.178Z,12.3
2018-09-28T05:07:13.121Z,12.3
2018-09-28T05:08:22.825Z,12.37
2018-09-28T05:09:32.523Z,12.37
2018-09-28T05:10:42.471Z,12.37
2018-09-28T05:11:52.208Z,12.39
2018-09-28T05:13:02.317Z,12.39
2018-09-28T05:14:12.174Z,12.39
2018-09-28T05:15:22.152Z,12.45
2018-09-28T05:16:32.105Z,12.47
2018-09-28T05:17:42.048Z,12.37
2018-09-28T05:18:51.734Z,12.51
2018-09-28T05:20:01.424Z,12.53
2018-09-28T05:21:11.373Z,12.51
2018-09-28T05:22:20.804Z,12.48
2018-09-28T05:23:30.750Z,12.54
2018-09-28T05:24:40.694Z,12.48
2018-09-28T05:25:50.654Z,12.48
2018-09-28T05:27:00.348Z,12.48
2018-09-28T05:28:10.307Z,12.58
2018-09-28T05:29:20.001Z,12.68
2018-09-28T05:30:29.999Z,12.68
2018-09-28T05:31:40.294Z,12.63
2018-09-28T05:32:51.337Z,12.68
2018-09-28T05:34:01.948Z,12.66
2018-09-28T05:35:11.899Z,12.61
2018-09-28T05:36:21.857Z,12.8
2018-09-28T05:37:31.822Z,12.76
2018-09-28T05:38:41.512Z,12.8
2018-09-28T05:39:51.464Z,12.78
2018-09-28T05:41:01.425Z,12.72
2018-09-28T05:42:11.121Z,12.8
2018-09-28T05:43:21.063Z,12.88
2018-09-28T05:44:31.058Z,12.78
2018-09-28T05:45:40.999Z,12.76
2018-09-28T05:46:50.949Z,12.86
2018-09-28T05:48:00.906Z,12.87
2018-09-28T05:49:10.108Z,12.9
2018-09-28T05:50:19.555Z,12.98
2018-09-28T05:51:29.719Z,12.86
2018-09-28T05:52:40.048Z,12.95
2018-09-28T05:53:50.003Z,12.94
2018-09-28T05:54:59.699Z,12.94
2018-09-28T05:56:09.404Z,12.94
2018-09-28T05:57:19.363Z,13.02
2018-09-28T05:58:29.400Z,13.11
2018-09-28T05:59:38.976Z,13.16
2018-09-28T06:00:49.158Z,13.19
2018-09-28T06:01:58.846Z,13.28
2018-09-28T06:03:08.837Z,13.28
2018-09-28T06:04:18.529Z,13.21
2018-09-28T06:05:28.379Z,13.27
2018-09-28T06:06:38.734Z,13.33
2018-09-28T06:07:48.430Z,13.43
2018-09-28T06:08:58.365Z,13.47
2018-09-28T06:10:08.557Z,13.54
2018-09-28T06:11:17.994Z,13.55
2018-09-28T06:12:27.679Z,13.6
2018-09-28T06:13:37.645Z,13.64
2018-09-28T06:14:47.590Z,13.65
2018-09-28T06:15:57.030Z,13.68
2018-09-28T06:17:06.460Z,13.62
2018-09-28T06:18:16.146Z,13.71
2018-09-28T06:19:25.886Z,13.73
2018-09-28T06:20:35.837Z,13.78
2018-09-28T06:21:45.538Z,13.78
2018-09-28T06:22:55.485Z,13.78
2018-09-28T06:24:05.630Z,13.75
2018-09-28T06:25:15.716Z,13.89
2018-09-28T06:26:25.675Z,13.76
2018-09-28T06:27:35.633Z,13.7
2018-09-28T06:28:45.317Z,13.75
2018-09-28T06:29:55.193Z,13.8
2018-09-28T06:31:05.395Z,13.78
2018-09-28T06:32:15.350Z,13.8
2018-09-28T06:33:25.565Z,13.8
2018-09-28T06:34:35.538Z,13.76
2018-09-28T06:35:45.406Z,13.76
2018-09-28T06:36:55.420Z,13.78
2018-09-28T06:38:04.863Z,13.85
2018-09-28T06:39:14.889Z,13.86
2018-09-28T06:40:24.869Z,13.91
2018-09-28T06:41:35.077Z,13.86
2018-09-28T06:42:44.822Z,13.82
2018-09-28T06:43:54.531Z,13.87
2018-09-28T06:45:04.741Z,13.89
2018-09-28T06:46:14.183Z,13.85
2018-09-28T06:47:24.173Z,13.93
2018-09-28T06:48:34.126Z,13.93
2018-09-28T06:49:43.831Z,14
2018-09-28T06:50:53.792Z,14.01
2018-09-28T06:52:03.504Z,13.97
2018-09-28T06:53:12.953Z,14.03
2018-09-28T06:54:23.176Z,14.05
2018-09-28T06:55:33.134Z,14.08
2018-09-28T06:56:43.107Z,14.04
2018-09-28T06:57:53.060Z,14.05
2018-09-28T06:59:03.011Z,14.13
2018-09-28T07:00:13.232Z,14.07
2018-09-28T07:01:23.138Z,14.07
2018-09-28T07:02:32.582Z,14.12
2018-09-28T07:03:42.547Z,14.04
2018-09-28T07:04:52.506Z,14.07
2018-09-28T07:06:02.590Z,14.13
2018-09-28T07:07:12.643Z,14.15
2018-09-28T07:08:22.384Z,14.18
2018-09-28T07:09:32.714Z,14.3
2018-09-28T07:10:42.478Z,14.2
2018-09-28T07:11:52.793Z,14.16
2018-09-28T07:13:03.224Z,14.22
2018-09-28T07:14:13.193Z,14.22
2018-09-28T07:15:23.150Z,14.18
2018-09-28T07:16:33.354Z,14.16
2018-09-28T07:17:43.415Z,14.11
2018-09-28T07:18:52.972Z,14.11
2018-09-28T07:20:02.439Z,14.07
2018-09-28T07:21:12.535Z,14.08
2018-09-28T07:22:22.492Z,14.13
2018-09-28T07:23:32.459Z,14.16
2018-09-28T07:24:42.643Z,14.19
2018-09-28T07:25:52.656Z,14.23
2018-09-28T07:27:02.375Z,14.18
2018-09-28T07:28:12.080Z,14.25
2018-09-28T07:29:21.777Z,14.26
2018-09-28T07:30:31.767Z,14.34
2018-09-28T07:31:41.513Z,14.3
2018-09-28T07:32:51.271Z,14.33
2018-09-28T07:34:01.241Z,14.51
2018-09-28T07:35:11.197Z,14.41
2018-09-28T07:36:21.431Z,14.53
2018-09-28T07:37:32.036Z,14.45
2018-09-28T07:38:41.732Z,14.34
2018-09-28T07:39:51.430Z,14.37
2018-09-28T07:41:01.128Z,14.45
2018-09-28T07:42:10.625Z,14.45
2018-09-28T07:43:20.455Z,14.51
2018-09-28T07:44:30.153Z,14.58
2018-09-28T07:45:40.144Z,14.52
2018-09-28T07:46:50.103Z,14.43
2018-09-28T07:48:00.478Z,14.49
2018-09-28T07:49:10.789Z,14.61
2018-09-28T07:50:20.825Z,14.59
2018-09-28T07:51:30.315Z,14.55
2018-09-28T07:52:40.270Z,14.61
2018-09-28T07:53:49.977Z,14.52
2018-09-28T07:54:59.463Z,14.53
2018-09-28T07:56:09.169Z,14.52
2018-09-28T07:57:19.121Z,14.52
2018-09-28T07:58:29.087Z,14.51
2018-09-28T07:59:39.052Z,14.62
2018-09-28T08:00:49.035Z,14.63
2018-09-28T08:01:59.049Z,14.66
2018-09-28T08:03:09.012Z,14.78
2018-09-28T08:04:18.733Z,14.82
2018-09-28T08:05:28.706Z,14.89
2018-09-28T08:06:38.632Z,15.11
2018-09-28T08:07:48.331Z,15.23
2018-09-28T08:08:58.280Z,15.36
2018-09-28T08:10:08.280Z,15.54
2018-09-28T08:11:17.734Z,15.75
2018-09-28T08:12:27.710Z,15.76
2018-09-28T08:13:37.420Z,15.7
2018-09-28T08:14:47.400Z,15.65
2018-09-28T08:15:57.355Z,15.66
2018-09-28T08:17:07.306Z,15.63
2018-09-28T08:18:16.766Z,15.75
2018-09-28T08:19:26.735Z,16.05
2018-09-28T08:20:36.703Z,16.25
2018-09-28T08:21:46.667Z,16.39
2018-09-28T08:22:56.383Z,16.41
2018-09-28T08:24:06.374Z,16.49
2018-09-28T08:25:16.084Z,16.4
2018-09-28T08:26:26.062Z,16.18
2018-09-28T08:27:36.028Z,16.09
2018-09-28T08:28:46.010Z,16.09
2018-09-28T08:29:55.961Z,16.21
2018-09-28T08:31:05.927Z,16.26
2018-09-28T08:32:15.892Z,16.08
2018-09-28T08:33:25.851Z,16.02
2018-09-28T08:34:35.824Z,16.03
2018-09-28T08:35:45.522Z,16.06
2018-09-28T08:36:55.425Z,16.25
2018-09-28T08:38:04.836Z,16.25
2018-09-28T08:39:14.787Z,16.21
2018-09-28T08:40:24.503Z,16.16
2018-09-28T08:41:33.694Z,16.24
2018-09-28T08:42:43.730Z,16.13
2018-09-28T08:43:53.757Z,16.32
2018-09-28T08:45:03.205Z,16.39
2018-09-28T08:46:13.213Z,16.51
2018-09-28T08:47:23.182Z,16.55
2018-09-28T08:48:32.939Z,16.55
2018-09-28T08:49:42.707Z,16.55
2018-09-28T08:50:52.496Z,16.73
2018-09-28T08:52:02.468Z,16.79
2018-09-28T08:53:12.455Z,16.77
2018-09-28T08:54:22.744Z,16.57
2018-09-28T08:55:33.053Z,16.49
2018-09-28T08:56:42.828Z,16.61
2018-09-28T08:57:52.787Z,16.54
2018-09-28T08:59:02.844Z,16.72
2018-09-28T09:00:12.900Z,16.64
2018-09-28T09:01:22.865Z,16.69
2018-09-28T09:02:32.565Z,16.84
2018-09-28T09:03:42.523Z,17.05
2018-09-28T09:04:52.526Z,17.16
2018-09-28T09:06:02.490Z,17.27
2018-09-28T09:07:12.455Z,17.46
2018-09-28T09:08:22.413Z,17.6
2018-09-28T09:09:32.124Z,17.6
2018-09-28T09:10:42.086Z,17.68
2018-09-28T09:11:52.059Z,17.79
2018-09-28T09:13:02.016Z,17.71
2018-09-28T09:14:12.004Z,17.68
2018-09-28T09:15:22.001Z,17.24
2018-09-28T09:16:31.953Z,17.09
2018-09-28T09:17:41.919Z,16.8
2018-09-28T09:18:51.487Z,16.51
2018-09-28T09:20:01.460Z,16.65
2018-09-28T09:21:11.157Z,16.66
2018-09-28T09:22:20.591Z,16.79
2018-09-28T09:23:30.536Z,16.89
2018-09-28T09:24:39.960Z,17.01
2018-09-28T09:25:49.908Z,17.2
2018-09-28T09:26:59.870Z,17.35
2018-09-28T09:28:09.836Z,17.69
2018-09-28T09:29:19.793Z,17.93
2018-09-28T09:30:29.235Z,17.97
2018-09-28T09:31:39.268Z,17.94
2018-09-28T09:32:49.245Z,18.02
2018-09-28T09:33:58.997Z,17.98
2018-09-28T09:35:08.967Z,17.8
2018-09-28T09:36:18.938Z,17.94
2018-09-28T09:37:28.955Z,17.95
2018-09-28T09:38:38.899Z,17.9
2018-09-28T09:39:48.597Z,17.98
2018-09-28T09:40:58.297Z,18.13
2018-09-28T09:42:08.263Z,18.13
2018-09-28T09:43:18.225Z,17.94
2018-09-28T09:44:27.941Z,17.76
2018-09-28T09:45:37.651Z,17.69
2018-09-28T09:46:47.603Z,17.65
2018-09-28T09:47:57.613Z,17.44
2018-09-28T09:49:07.573Z,17.35
2018-09-28T09:50:17.581Z,17.23
2018-09-28T09:51:27.274Z,16.89
2018-09-28T09:52:37.250Z,16.89
2018-09-28T09:53:46.728Z,16.72
2018-09-28T09:54:56.957Z,16.66
2018-09-28T09:56:06.978Z,16.76
2018-09-28T09:57:16.943Z,16.99
2018-09-28T09:58:26.940Z,17.07
2018-09-28T09:59:36.902Z,16.95
2018-09-28T10:00:46.879Z,16.91
2018-09-28T10:01:56.889Z,16.64
2018-09-28T10:03:06.587Z,16.62
2018-09-28T10:04:16.528Z,16.74
2018-09-28T10:05:25.994Z,16.92
2018-09-28T10:06:35.503Z,17.16
2018-09-28T10:07:45.503Z,17.24
2018-09-28T10:08:55.231Z,17.31
2018-09-28T10:10:05.202Z,17.5
2018-09-28T10:11:15.200Z,17.47
2018-09-28T10:12:25.562Z,17.49
2018-09-28T10:13:35.955Z,17.56
2018-09-28T10:14:45.719Z,17.71
2018-09-28T10:15:55.442Z,17.65
2018-09-28T10:17:05.395Z,17.65
2018-09-28T10:18:15.088Z,17.72
2018-09-28T10:19:25.406Z,17.68
2018-09-28T10:20:35.478Z,17.76
2018-09-28T10:21:45.495Z,17.91
2018-09-28T10:22:55.477Z,17.87
2018-09-28T10:24:05.448Z,17.84
2018-09-28T10:25:15.449Z,17.66
2018-09-28T10:26:25.158Z,17.73
2018-09-28T10:27:35.439Z,18
2018-09-28T10:28:46.135Z,18.33
2018-09-28T10:29:56.182Z,18.09
2018-09-28T10:31:06.156Z,18.15
2018-09-28T10:32:16.121Z,18.12
2018-09-28T10:33:25.889Z,17.91
2018-09-28T10:34:36.116Z,17.91
2018-09-28T10:35:45.949Z,17.8
2018-09-28T10:36:55.928Z,17.68
2018-09-28T10:38:05.893Z,17.63
2018-09-28T10:39:16.111Z,17.79
2018-09-28T10:40:26.238Z,17.86
2018-09-28T10:41:36.748Z,17.72
2018-09-28T10:42:46.706Z,17.65
2018-09-28T10:43:56.708Z,17.49
2018-09-28T10:45:06.681Z,17.35
2018-09-28T10:46:16.718Z,17.52
2018-09-28T10:47:26.706Z,17.54
2018-09-28T10:48:36.673Z,17.65
2018-09-28T10:49:46.640Z,17.94
2018-09-28T10:50:56.840Z,18.24
2018-09-28T10:52:07.868Z,18.3
2018-09-28T10:53:17.703Z,18.06
2018-09-28T10:54:27.666Z,18.11
2018-09-28T10:55:37.659Z,18.26
2018-09-28T10:56:47.355Z,18.34
2018-09-28T10:57:57.332Z,18.63
2018-09-28T10:59:07.296Z,19.07
2018-09-28T11:00:17.117Z,19.17
2018-09-28T11:01:27.328Z,19.27
2018-09-28T11:02:37.276Z,19.67
2018-09-28T11:03:47.348Z,20.11
2018-09-28T11:04:57.270Z,20.36
2018-09-28T11:06:06.696Z,20.29
2018-09-28T11:07:16.674Z,19.85
2018-09-28T11:08:26.828Z,19.64
2018-09-28T11:09:37.267Z,19.17
2018-09-28T11:10:47.861Z,19
2018-09-28T11:11:58.080Z,18.86
2018-09-28T11:13:08.038Z,18.45
2018-09-28T11:14:17.741Z,18.08
2018-09-28T11:15:28.044Z,18
2018-09-28T11:16:38.114Z,18.11
2018-09-28T11:17:47.556Z,18.26
2018-09-28T11:18:57.088Z,18.52
2018-09-28T11:20:07.457Z,18.76
2018-09-28T11:21:17.579Z,18.82
2018-09-28T11:22:27.747Z,18.86
2018-09-28T11:23:37.711Z,19.22
2018-09-28T11:24:47.435Z,19.41
2018-09-28T11:25:57.403Z,19.59
2018-09-28T11:27:07.125Z,19.39
2018-09-28T11:28:16.688Z,19
2018-09-28T11:29:26.661Z,19.07
2018-09-28T11:30:36.361Z,19.45
2018-09-28T11:31:46.050Z,19.72
2018-09-28T11:32:56.015Z,19.82
2018-09-28T11:34:05.963Z,20.11
2018-09-28T11:35:15.926Z,20.18
2018-09-28T11:36:25.932Z,19.92
2018-09-28T11:37:35.726Z,19.96
2018-09-28T11:38:45.801Z,19.63
2018-09-28T11:39:55.657Z,19.56
2018-09-28T11:41:05.633Z,19.66
2018-09-28T11:42:15.611Z,19.38
2018-09-28T11:43:25.658Z,19.34
2018-09-28T11:44:35.615Z,19.15
2018-09-28T11:45:45.206Z,19.26
2018-09-28T11:46:55.427Z,19.27
2018-09-28T11:48:05.141Z,19.05
2018-09-28T11:49:15.388Z,19.19
2018-09-28T11:50:25.292Z,19.39
2018-09-28T11:51:35.456Z,19.75
2018-09-28T11:52:45.375Z,20.18
2018-09-28T11:53:55.355Z,20.44
2018-09-28T11:55:05.316Z,20.19
2018-09-28T11:56:15.301Z,20.17
2018-09-28T11:57:25.664Z,20.4
2018-09-28T11:58:35.844Z,20.52
2018-09-28T11:59:45.571Z,20.14
2018-09-28T12:00:55.308Z,19.96
2018-09-28T12:02:05.288Z,19.82
2018-09-28T12:03:15.071Z,19.66
2018-09-28T12:04:25.299Z,19.35
2018-09-28T12:05:34.764Z,18.91
2018-09-28T12:06:44.825Z,18.85
2018-09-28T12:07:55.135Z,18.58
2018-09-28T12:09:04.840Z,18.46
2018-09-28T12:10:14.903Z,18.45
2018-09-28T12:11:24.871Z,18.85
2018-09-28T12:12:35.202Z,19.24
2018-09-28T12:13:45.034Z,19.32
2018-09-28T12:14:54.983Z,19.53
2018-09-28T12:16:04.946Z,19.85
2018-09-28T12:17:14.136Z,19.72
2018-09-28T12:18:24.397Z,19.78
2018-09-28T12:19:34.536Z,19.63
2018-09-28T12:20:44.231Z,19.52
2018-09-28T12:21:54.579Z,19.7
2018-09-28T12:23:04.550Z,20.03
2018-09-28T12:24:14.581Z,20.5
2018-09-28T12:25:24.694Z,20.75
2018-09-28T12:26:34.681Z,20.77
2018-09-28T12:27:44.656Z,20.4
2018-09-28T12:28:54.544Z,20.42
2018-09-28T12:30:04.325Z,20.4
2018-09-28T12:31:14.073Z,20.18
2018-09-28T12:32:24.034Z,20.03
2018-09-28T12:33:34.124Z,20.02
2018-09-28T12:34:44.376Z,20.24
2018-09-28T12:35:54.343Z,20.12
2018-09-28T12:37:04.040Z,20.03
2018-09-28T12:38:13.989Z,19.97
2018-09-28T12:39:23.959Z,19.85
2018-09-28T12:40:33.698Z,20.11
2018-09-28T12:41:43.407Z,20.18
2018-09-28T12:42:53.623Z,20.11
2018-09-28T12:44:03.330Z,19.77
2018-09-28T12:45:13.341Z,19.48
2018-09-28T12:46:23.554Z,19.19
2018-09-28T12:47:33.517Z,18.86
2018-09-28T12:48:43.061Z,18.26
2018-09-28T12:49:53.382Z,18.26
2018-09-28T12:51:03.082Z,18.26
2018-09-28T12:52:13.101Z,18.11
2018-09-28T12:53:23.131Z,18.16
2018-09-28T12:54:33.374Z,18.11
2018-09-28T12:55:43.148Z,18.05
2018-09-28T12:56:53.456Z,17.97
2018-09-28T12:58:03.441Z,17.87
2018-09-28T12:59:13.142Z,17.87
2018-09-28T13:00:23.338Z,17.84
2018-09-28T13:01:33.477Z,17.72
2018-09-28T13:02:43.678Z,17.75
2018-09-28T13:03:52.916Z,17.56
2018-09-28T13:05:02.890Z,17.3
2018-09-28T13:06:12.978Z,16.97
2018-09-28T13:07:22.532Z,16.95
2018-09-28T13:08:32.291Z,17.02
2018-09-28T13:09:42.310Z,16.97
2018-09-28T13:10:52.284Z,16.86
2018-09-28T13:12:02.279Z,16.99
2018-09-28T13:13:12.053Z,16.94
2018-09-28T13:14:22.338Z,16.84
2018-09-28T13:15:32.314Z,16.77
2018-09-28T13:16:42.029Z,16.83
2018-09-28T13:17:51.743Z,17.13
2018-09-28T13:19:01.694Z,17.16
2018-09-28T13:20:11.776Z,17.24
2018-09-28T13:21:21.797Z,17.19
2018-09-28T13:22:31.766Z,17.23
2018-09-28T13:23:41.728Z,17.07
2018-09-28T13:24:52.095Z,17.13
2018-09-28T13:26:02.197Z,17.38
2018-09-28T13:27:12.175Z,17.54
2018-09-28T13:28:22.165Z,17.87
2018-09-28T13:29:32.145Z,17.98
2018-09-28T13:30:42.373Z,17.95
2018-09-28T13:31:52.632Z,17.69
2018-09-28T13:33:02.590Z,17.65
2018-09-28T13:34:12.336Z,17.42
2018-09-28T13:35:22.301Z,17.6
2018-09-28T13:36:32.598Z,17.75
2018-09-28T13:37:42.721Z,17.84
2018-09-28T13:38:53.064Z,17.98
2018-09-28T13:40:02.938Z,18.12
2018-09-28T13:41:12.648Z,18.13
2018-09-28T13:42:22.963Z,18.27
2018-09-28T13:43:33.132Z,18.39
2018-09-28T13:44:43.474Z,18.63
2018-09-28T13:45:53.482Z,18.81
2018-09-28T13:47:03.016Z,18.91
2018-09-28T13:48:12.282Z,18.97
2018-09-28T13:49:22.368Z,19.05
2018-09-28T13:50:32.250Z,19.23
2018-09-28T13:51:42.357Z,18.92
2018-09-28T13:52:52.776Z,18.67
2018-09-28T13:54:03.066Z,18.81
2018-09-28T13:55:13.086Z,18.85
2018-09-28T13:56:23.264Z,18.89
2018-09-28T13:57:33.431Z,19
2018-09-28T13:58:43.745Z,19.09
2018-09-28T13:59:54.084Z,18.92
2018-09-28T14:01:03.543Z,18.81
2018-09-28T14:02:13.319Z,18.42
2018-09-28T14:03:23.447Z,18.27
2018-09-28T14:04:33.575Z,18.09
2018-09-28T14:05:43.676Z,17.93
2018-09-28T14:06:53.837Z,17.8
2018-09-28T14:08:04.044Z,17.65
2018-09-28T14:09:14.082Z,17.66
2018-09-28T14:10:24.298Z,17.54
2018-09-28T14:11:34.199Z,17.69
2018-09-28T14:12:44.455Z,17.68
2018-09-28T14:13:54.692Z,17.71
2018-09-28T14:15:04.679Z,17.68
2018-09-28T14:16:14.795Z,17.49
2018-09-28T14:17:25.005Z,17.6
2018-09-28T14:18:35.117Z,17.95
2018-09-28T14:19:45.036Z,17.82
2018-09-28T14:20:55.254Z,17.75
2018-09-28T14:22:05.230Z,17.87
2018-09-28T14:23:14.735Z,17.6
2018-09-28T14:24:24.956Z,17.6
2018-09-28T14:25:34.967Z,17.49
2018-09-28T14:26:44.710Z,17.6
2018-09-28T14:27:54.737Z,17.68
2018-09-28T14:29:04.393Z,17.59
2018-09-28T14:30:14.420Z,17.65
2018-09-28T14:31:24.348Z,17.47
2018-09-28T14:32:34.432Z,17.49
2018-09-28T14:33:44.743Z,17.49
2018-09-28T14:34:55.064Z,17.66
2018-09-28T14:36:04.762Z,17.63
2018-09-28T14:37:14.788Z,17.69
2018-09-28T14:38:24.811Z,17.57
2018-09-28T14:39:34.994Z,17.32
2018-09-28T14:40:45.163Z,17.24
2018-09-28T14:41:55.846Z,17.17
2018-09-28T14:43:06.114Z,17.05
2018-09-28T14:44:16.236Z,17.13
2018-09-28T14:45:26.550Z,17.16
2018-09-28T14:46:36.714Z,17.17
2018-09-28T14:47:46.703Z,17.2
2018-09-28T14:48:57.080Z,17.12
2018-09-28T14:50:07.436Z,16.99
2018-09-28T14:51:17.567Z,17.2
2018-09-28T14:52:27.949Z,17.16
2018-09-28T14:53:37.475Z,17.04
2018-09-28T14:54:47.622Z,17.16
2018-09-28T14:55:57.681Z,17.39
2018-09-28T14:57:07.661Z,17.5
2018-09-28T14:58:17.763Z,17.39
2018-09-28T14:59:27.932Z,17.28
2018-09-28T15:00:38.316Z,17.22
2018-09-28T15:01:48.390Z,17.39
2018-09-28T15:02:58.355Z,17.47
2018-09-28T15:04:08.373Z,17.5